createdAt,value
2022-10-15T00:01:18.058Z,7.50
2022-10-15T00:03:46.150Z,7.07
2022-10-15T00:06:23.402Z,7.37
2022-10-15T00:08:50.312Z,7.40
2022-10-15T00:11:20.722Z,7.97
2022-10-15T00:13:47.772Z,7.93
2022-10-15T00:16:17.282Z,7.67
2022-10-15T00:18:44.654Z,7.00
2022-10-15T00:21:15.270Z,7.80
2022-10-15T00:23:43.152Z,8.10
2022-10-15T00:26:18.596Z,7.93
2022-10-15T00:28:46.298Z,7.93
2022-10-15T00:31:15.991Z,8.47
2022-10-15T00:33:43.098Z,7.10
2022-10-15T00:36:18.535Z,7.67
2022-10-15T00:38:45.763Z,7.53
2022-10-15T00:41:19.536Z,6.33
2022-10-15T00:43:49.273Z,6.67
2022-10-15T00:46:36.218Z,6.80
2022-10-15T00:49:21.774Z,6.70
2022-10-15T00:51:59.286Z,13.10
2022-10-15T00:54:29.112Z,7.37
2022-10-15T00:56:56.274Z,6.60
2022-10-15T00:59:26.322Z,7.37
2022-10-15T01:01:54.981Z,5.20
2022-10-15T01:04:23.511Z,5.53
2022-10-15T01:06:50.338Z,5.53
2022-10-15T01:09:17.698Z,5.10
2022-10-15T01:11:48.530Z,6.80
2022-10-15T01:14:36.298Z,5.97
2022-10-15T01:17:30.373Z,5.53
2022-10-15T01:20:20.644Z,5.60
2022-10-15T01:22:50.271Z,5.47
2022-10-15T01:25:39.955Z,4.87
2022-10-15T01:28:46.515Z,4.87
2022-10-15T01:31:16.634Z,7.10
2022-10-15T01:34:04.612Z,4.97
2022-10-15T01:36:47.395Z,4.77
2022-10-15T01:39:23.624Z,5.77
2022-10-15T01:42:00.816Z,4.20
2022-10-15T01:44:42.713Z,4.50
2022-10-15T01:47:23.982Z,5.40
2022-10-15T01:49:54.454Z,4.83
2022-10-15T01:55:00.021Z,5.00
2022-10-15T01:57:30.685Z,5.20
2022-10-15T01:59:58.384Z,4.40
2022-10-15T02:02:25.917Z,4.93
2022-10-15T02:04:53.297Z,4.40
2022-10-15T02:07:31.605Z,5.77
2022-10-15T02:10:04.329Z,4.30
2022-10-15T02:13:07.521Z,5.27
2022-10-15T02:16:03.025Z,4.90
2022-10-15T02:18:41.183Z,5.27
2022-10-15T02:21:21.050Z,4.40
2022-10-15T02:23:50.854Z,4.03
2022-10-15T02:26:18.919Z,3.83
2022-10-15T02:28:51.149Z,5.00
2022-10-15T02:31:20.632Z,4.33
2022-10-15T02:33:48.965Z,4.47
2022-10-15T02:36:17.466Z,3.87
2022-10-15T02:38:46.215Z,4.43
2022-10-15T02:41:14.237Z,4.27
2022-10-15T02:43:42.102Z,4.37
2022-10-15T02:46:11.897Z,4.20
2022-10-15T02:48:38.732Z,4.30
2022-10-15T02:51:05.866Z,4.23
2022-10-15T02:53:33.094Z,4.10
2022-10-15T02:56:00.004Z,3.70
2022-10-15T02:58:26.983Z,4.07
2022-10-15T03:00:53.996Z,3.77
2022-10-15T03:03:20.891Z,4.40
2022-10-15T03:05:50.953Z,4.30
2022-10-15T03:08:17.991Z,4.13
2022-10-15T03:10:46.466Z,4.17
2022-10-15T03:13:13.517Z,4.27
2022-10-15T03:15:40.638Z,3.87
2022-10-15T03:18:08.458Z,3.80
2022-10-15T03:20:35.789Z,4.93
2022-10-15T03:23:03.016Z,3.93
2022-10-15T03:25:29.881Z,4.27
2022-10-15T03:27:57.048Z,4.23
2022-10-15T03:30:24.153Z,3.73
2022-10-15T03:32:51.071Z,4.47
2022-10-15T03:35:18.007Z,3.97
2022-10-15T03:37:45.004Z,3.70
2022-10-15T03:40:14.459Z,4.60
2022-10-15T03:42:41.833Z,4.10
2022-10-15T03:45:09.682Z,3.87
2022-10-15T03:47:36.594Z,4.20
2022-10-15T03:50:03.821Z,3.50
2022-10-15T03:52:30.701Z,4.10
2022-10-15T03:54:57.721Z,3.60
2022-10-15T03:57:24.711Z,3.87
2022-10-15T03:59:51.637Z,3.53
2022-10-15T04:02:18.614Z,3.50
2022-10-15T04:04:45.500Z,3.47
2022-10-15T04:07:12.619Z,4.00
2022-10-15T04:09:39.566Z,3.97
2022-10-15T04:12:06.601Z,4.07
2022-10-15T04:14:33.481Z,4.33
2022-10-15T04:17:00.400Z,4.40
2022-10-15T04:19:27.303Z,4.20
2022-10-15T04:21:54.413Z,4.13
2022-10-15T04:24:21.382Z,5.63
2022-10-15T04:26:49.195Z,5.10
2022-10-15T04:29:16.314Z,4.73
2022-10-15T04:31:43.603Z,6.43
2022-10-15T04:34:10.692Z,4.73
2022-10-15T04:36:38.344Z,5.57
2022-10-15T04:39:06.923Z,7.00
2022-10-15T04:41:35.678Z,5.87
2022-10-15T04:44:02.929Z,6.37
2022-10-15T04:46:29.999Z,6.63
2022-10-15T04:48:57.950Z,6.87
2022-10-15T04:51:26.352Z,6.53
2022-10-15T04:53:53.589Z,6.70
2022-10-15T04:56:22.138Z,7.67
2022-10-15T04:58:50.254Z,7.90
2022-10-15T05:01:20.617Z,7.97
2022-10-15T05:03:48.990Z,7.13
2022-10-15T05:06:18.826Z,8.70
2022-10-15T05:08:46.806Z,9.23
2022-10-15T05:11:23.260Z,11.53
2022-10-15T05:13:50.833Z,9.70
2022-10-15T05:16:24.252Z,10.37
2022-10-15T05:18:53.099Z,11.73
2022-10-15T05:21:20.671Z,11.40
2022-10-15T05:23:48.070Z,10.83
2022-10-15T05:26:18.046Z,12.10
2022-10-15T05:28:45.449Z,11.93
2022-10-15T05:31:18.947Z,12.30
2022-10-15T05:33:50.755Z,13.20
2022-10-15T05:36:20.230Z,12.10
2022-10-15T05:38:48.850Z,11.90
2022-10-15T05:41:16.349Z,12.13
2022-10-15T05:43:43.443Z,12.47
2022-10-15T05:46:10.603Z,14.00
2022-10-15T05:48:37.647Z,11.63
2022-10-15T05:51:06.596Z,14.07
2022-10-15T05:53:33.956Z,12.80
2022-10-15T05:56:00.785Z,13.67
2022-10-15T05:58:33.350Z,13.53
2022-10-15T06:01:06.940Z,13.07
2022-10-15T06:03:34.131Z,13.17
2022-10-15T06:06:01.500Z,14.90
2022-10-15T06:08:30.025Z,13.33
2022-10-15T06:11:05.233Z,13.97
2022-10-15T06:13:35.473Z,14.37
2022-10-15T06:16:04.242Z,14.23
2022-10-15T06:18:31.103Z,13.80
2022-10-15T06:20:58.017Z,14.07
2022-10-15T06:23:24.997Z,13.80
2022-10-15T06:25:52.238Z,14.17
2022-10-15T06:28:19.164Z,15.20
2022-10-15T06:30:46.325Z,14.57
2022-10-15T06:33:13.312Z,10.93
2022-10-15T06:35:41.329Z,13.73
2022-10-15T06:38:08.497Z,13.90
2022-10-15T06:40:35.385Z,15.17
2022-10-15T06:43:07.983Z,15.33
2022-10-15T06:45:37.266Z,14.03
2022-10-15T06:48:05.458Z,13.60
2022-10-15T06:50:33.601Z,13.33
2022-10-15T06:53:00.845Z,13.37
2022-10-15T06:55:29.166Z,13.07
2022-10-15T06:57:56.767Z,13.87
2022-10-15T07:00:25.529Z,13.80
2022-10-15T07:02:52.786Z,13.93
2022-10-15T07:05:20.673Z,13.10
2022-10-15T07:07:54.676Z,13.73
2022-10-15T07:10:22.066Z,12.37
2022-10-15T07:12:49.037Z,12.27
2022-10-15T07:15:17.110Z,10.67
2022-10-15T07:17:48.945Z,13.10
2022-10-15T07:20:20.254Z,13.23
2022-10-15T07:22:52.333Z,12.40
2022-10-15T07:25:19.252Z,13.40
2022-10-15T07:27:46.160Z,13.63
2022-10-15T07:30:13.216Z,11.93
2022-10-15T07:32:40.528Z,13.23
2022-10-15T07:35:11.775Z,14.73
2022-10-15T07:37:38.984Z,13.77
2022-10-15T07:40:06.527Z,13.40
2022-10-15T07:42:33.523Z,14.40
2022-10-15T07:45:00.685Z,14.07
2022-10-15T07:47:27.707Z,14.20
2022-10-15T07:49:54.610Z,14.57
2022-10-15T07:52:22.466Z,15.10
2022-10-15T07:54:49.766Z,13.07
2022-10-15T07:57:17.889Z,13.80
2022-10-15T07:59:45.170Z,14.77
2022-10-15T08:02:17.021Z,12.67
2022-10-15T08:04:43.932Z,11.90
2022-10-15T08:07:11.233Z,14.10
2022-10-15T08:09:38.250Z,14.20
2022-10-15T08:12:07.068Z,13.77
2022-10-15T08:14:35.579Z,17.53
2022-10-15T08:17:06.489Z,12.83
2022-10-15T08:19:33.542Z,14.83
2022-10-15T08:22:00.548Z,10.97
2022-10-15T08:24:30.664Z,13.93
2022-10-15T08:26:58.628Z,11.60
2022-10-15T08:29:25.950Z,14.40
2022-10-15T08:31:52.909Z,13.23
2022-10-15T08:34:19.932Z,11.30
2022-10-15T08:36:46.974Z,14.27
2022-10-15T08:39:14.013Z,12.30
2022-10-15T08:41:45.604Z,11.77
2022-10-15T08:44:41.596Z,14.80
2022-10-15T08:47:31.278Z,13.67
2022-10-15T08:50:01.487Z,12.40
2022-10-15T08:52:47.079Z,13.23
2022-10-15T08:55:17.241Z,14.43
2022-10-15T08:58:26.536Z,12.07
2022-10-15T09:01:04.647Z,13.17
2022-10-15T09:38:35.444Z,11.43
2022-10-15T09:41:10.900Z,11.83
2022-10-15T09:43:41.103Z,12.77
2022-10-15T09:46:10.892Z,11.57
2022-10-15T09:48:48.324Z,12.90
2022-10-15T09:51:40.664Z,12.03
2022-10-15T09:54:42.947Z,11.40
2022-10-15T09:57:11.762Z,13.43
2022-10-15T09:59:38.754Z,11.87
2022-10-15T10:02:26.670Z,12.70
2022-10-15T10:04:54.922Z,11.97
2022-10-15T10:07:41.878Z,12.97
2022-10-15T10:10:29.519Z,12.77
2022-10-15T10:12:57.121Z,12.73
2022-10-15T10:15:34.534Z,12.37
2022-10-15T10:18:02.182Z,13.13
2022-10-15T10:20:33.745Z,13.13
2022-10-15T10:23:05.499Z,13.10
2022-10-15T10:25:44.842Z,14.60
2022-10-15T10:28:14.791Z,10.80
2022-10-15T10:30:56.087Z,13.90
2022-10-15T10:33:48.600Z,12.80
2022-10-15T10:36:36.493Z,13.20
2022-10-15T10:39:15.557Z,15.03
2022-10-15T10:41:50.691Z,14.77
2022-10-15T10:44:35.098Z,12.67
2022-10-15T10:47:18.449Z,15.83
2022-10-15T10:49:50.933Z,11.70
2022-10-15T10:52:30.921Z,16.07
2022-10-15T10:55:19.249Z,15.67
2022-10-15T10:57:55.371Z,16.07
2022-10-15T11:00:29.309Z,14.73
2022-10-15T11:02:57.620Z,16.57
2022-10-15T11:05:30.282Z,16.03
2022-10-15T11:08:12.110Z,16.80
2022-10-15T11:10:50.261Z,18.87
2022-10-15T11:13:36.347Z,17.23
2022-10-15T11:16:17.864Z,16.37
2022-10-15T11:20:05.598Z,18.00
2022-10-15T11:22:43.158Z,15.87
2022-10-15T11:25:18.916Z,16.33
2022-10-15T11:28:14.098Z,15.20
2022-10-15T11:31:24.587Z,15.97
2022-10-15T11:34:31.841Z,17.30
2022-10-15T11:37:11.200Z,18.43
2022-10-15T11:40:22.335Z,16.70
2022-10-15T11:43:04.321Z,17.90
2022-10-15T11:46:06.598Z,18.13
2022-10-15T11:49:01.397Z,16.53
2022-10-15T11:51:56.357Z,17.27
2022-10-15T11:55:02.276Z,18.33
2022-10-15T11:58:07.459Z,19.33
2022-10-15T12:01:35.479Z,19.30
2022-10-15T12:04:30.378Z,17.67
2022-10-15T12:07:12.479Z,16.43
2022-10-15T12:13:10.188Z,15.83
2022-10-15T12:15:58.053Z,13.57
2022-10-15T12:18:52.737Z,16.60
2022-10-15T12:22:11.844Z,17.63
2022-10-15T12:24:39.946Z,15.60
2022-10-15T12:27:36.012Z,17.30
2022-10-15T12:30:21.384Z,15.63
2022-10-15T12:33:31.445Z,16.10
2022-10-15T12:38:26.497Z,16.33
2022-10-15T12:40:43.827Z,12.67
2022-10-15T12:43:35.479Z,15.83
2022-10-15T12:46:18.873Z,12.97
2022-10-15T12:49:26.743Z,14.30
2022-10-15T12:55:48.313Z,11.97
2022-10-15T12:58:35.582Z,14.87
2022-10-15T13:01:14.296Z,16.53
2022-10-15T13:03:50.973Z,15.50
2022-10-15T13:06:21.008Z,14.23
2022-10-15T13:09:00.549Z,15.93
2022-10-15T13:11:30.109Z,15.53
2022-10-15T13:27:13.317Z,11.23
2022-10-15T13:30:04.059Z,14.30
2022-10-15T13:33:15.299Z,15.10
2022-10-15T13:35:47.582Z,12.00
2022-10-15T13:38:47.168Z,15.73
2022-10-15T13:41:39.167Z,14.93
2022-10-15T13:44:29.998Z,15.23
2022-10-15T13:47:52.928Z,16.93
2022-10-15T13:49:52.824Z,10.50
2022-10-15T13:52:26.466Z,13.77
2022-10-15T13:55:27.185Z,14.00
2022-10-15T13:58:27.755Z,12.83
2022-10-15T14:01:12.147Z,13.70
2022-10-15T14:03:46.664Z,13.47
2022-10-15T14:06:35.118Z,14.77
2022-10-15T14:09:49.273Z,14.00
2022-10-15T14:13:02.146Z,13.50
2022-10-15T14:15:51.761Z,13.57
2022-10-15T14:18:58.642Z,15.00
2022-10-15T14:28:01.067Z,14.93
2022-10-15T14:30:54.586Z,15.23
2022-10-15T14:33:40.483Z,15.43
2022-10-15T14:36:22.268Z,15.60
2022-10-15T14:43:00.643Z,17.37
2022-10-15T14:45:30.869Z,17.00
2022-10-15T14:48:09.470Z,16.60
2022-10-15T14:50:49.868Z,17.10
2022-10-15T14:53:21.010Z,16.10
2022-10-15T14:56:00.461Z,16.37
2022-10-15T14:58:36.220Z,17.83
2022-10-15T15:01:10.004Z,17.63
2022-10-15T15:03:42.505Z,17.60
2022-10-15T15:06:33.878Z,16.87
2022-10-15T15:12:25.509Z,18.97
2022-10-15T15:15:17.720Z,18.60
2022-10-15T15:21:01.248Z,20.37
2022-10-15T15:24:24.462Z,17.80
2022-10-15T15:26:25.456Z,19.00
2022-10-15T15:28:52.464Z,20.33
2022-10-15T15:31:19.544Z,21.00
2022-10-15T15:33:46.781Z,19.93
2022-10-15T15:36:22.496Z,19.10
2022-10-15T15:38:51.076Z,18.70
2022-10-15T15:42:42.859Z,17.13
2022-10-15T16:19:51.449Z,20.43
2022-10-15T16:32:16.281Z,20.83
2022-10-15T16:41:37.231Z,20.57
2022-10-15T16:44:40.790Z,22.10
2022-10-15T16:47:25.369Z,22.90
2022-10-15T16:50:21.279Z,24.27
2022-10-15T16:53:00.515Z,23.33
2022-10-15T16:59:03.376Z,23.83
2022-10-15T17:01:41.707Z,21.67
2022-10-15T17:04:31.353Z,24.27
2022-10-15T17:07:16.485Z,23.27
2022-10-15T17:10:10.963Z,23.40
2022-10-15T17:12:53.339Z,22.67
2022-10-15T17:15:27.393Z,24.83
2022-10-15T17:19:15.996Z,23.63
2022-10-15T17:21:33.460Z,23.60
2022-10-15T17:24:10.854Z,23.73
2022-10-15T17:27:40.986Z,22.43
2022-10-15T17:29:45.337Z,23.37
2022-10-15T17:32:28.107Z,24.73
2022-10-15T17:35:32.621Z,23.13
2022-10-15T17:38:28.294Z,22.93
2022-10-15T17:41:43.527Z,23.23
2022-10-15T17:44:16.828Z,21.20
2022-10-15T17:47:00.625Z,23.43
2022-10-15T17:49:37.293Z,21.80
2022-10-15T17:53:01.663Z,21.17
2022-10-15T17:55:56.964Z,23.03
2022-10-15T18:01:39.254Z,19.93
2022-10-15T18:04:26.825Z,19.47
2022-10-15T18:14:05.055Z,21.47
2022-10-15T18:17:40.359Z,22.07
2022-10-15T18:20:14.478Z,20.80
2022-10-15T18:22:45.874Z,22.77
2022-10-15T18:25:17.907Z,23.60
2022-10-15T18:27:47.580Z,24.00
2022-10-15T18:31:06.782Z,23.53
2022-10-15T18:37:04.007Z,23.00
2022-10-15T18:39:57.795Z,25.10
2022-10-15T18:42:47.698Z,27.47
2022-10-15T18:46:30.963Z,24.37
2022-10-15T18:48:55.282Z,24.13
2022-10-15T19:00:42.801Z,23.37
2022-10-15T19:04:00.987Z,20.77
2022-10-15T19:06:45.161Z,21.70
2022-10-15T19:10:33.453Z,24.30
2022-10-15T19:12:36.023Z,25.70
2022-10-15T19:15:38.184Z,25.23
2022-10-15T19:18:17.125Z,28.17
2022-10-15T19:21:04.292Z,26.63
2022-10-15T19:24:33.658Z,25.77
2022-10-15T19:31:02.337Z,27.03
2022-10-15T19:33:22.100Z,26.10
2022-10-15T19:36:19.341Z,28.17
2022-10-15T19:39:21.474Z,23.03
2022-10-15T19:42:35.547Z,25.13
2022-10-15T19:45:46.314Z,22.43
2022-10-15T19:55:04.146Z,23.23
2022-10-15T20:01:06.667Z,24.63
2022-10-15T20:04:55.040Z,24.47
2022-10-15T20:06:52.693Z,24.00
2022-10-15T20:09:46.298Z,25.70
2022-10-15T20:12:32.075Z,24.83
2022-10-15T20:15:26.510Z,25.67
2022-10-15T20:18:22.925Z,26.10
2022-10-15T20:20:55.618Z,26.07
2022-10-15T20:24:39.876Z,24.87
2022-10-15T20:26:38.994Z,23.63
2022-10-15T20:29:18.964Z,23.97
2022-10-15T20:31:45.921Z,24.07
2022-10-15T20:34:12.981Z,23.33
2022-10-15T20:36:41.909Z,24.17
2022-10-15T20:39:09.055Z,24.40
2022-10-15T20:41:36.243Z,24.07
2022-10-15T20:44:03.264Z,25.00
2022-10-15T20:46:34.439Z,28.30
2022-10-15T20:49:08.569Z,24.67
2022-10-15T20:51:37.401Z,21.63
2022-10-15T20:54:04.836Z,26.87
2022-10-15T20:56:32.114Z,24.53
2022-10-15T20:58:59.105Z,20.07
2022-10-15T21:01:26.154Z,26.10
2022-10-15T21:03:53.390Z,25.80
2022-10-15T21:06:20.778Z,23.47
2022-10-15T21:08:47.860Z,26.33
2022-10-15T21:11:15.191Z,25.40
2022-10-15T21:13:42.313Z,24.77
2022-10-15T21:16:09.482Z,23.43
2022-10-15T21:18:37.210Z,21.57
2022-10-15T21:21:10.091Z,22.30
2022-10-15T21:23:39.653Z,23.63
2022-10-15T21:26:07.480Z,23.27
2022-10-15T21:28:35.497Z,22.50
2022-10-15T21:31:07.038Z,22.53
2022-10-15T21:33:36.029Z,23.47
2022-10-15T21:36:22.432Z,21.67
2022-10-15T21:38:53.225Z,20.40
2022-10-15T21:41:21.114Z,22.00
2022-10-15T21:46:20.534Z,24.03
2022-10-15T21:48:47.723Z,22.30
2022-10-15T21:51:22.007Z,22.10
2022-10-15T21:53:49.137Z,21.67
2022-10-15T21:56:17.024Z,19.77
2022-10-15T21:58:44.880Z,22.10
2022-10-15T22:01:19.134Z,23.17
2022-10-15T22:03:48.733Z,21.17
2022-10-15T22:06:16.630Z,21.73
2022-10-15T22:08:44.488Z,21.40
2022-10-15T22:11:14.869Z,21.43
2022-10-15T22:13:43.812Z,22.67
2022-10-15T22:16:11.720Z,20.40
2022-10-15T22:18:39.370Z,21.77
2022-10-15T22:21:17.793Z,21.23
2022-10-15T22:23:54.718Z,19.80
2022-10-15T22:26:24.826Z,19.67
2022-10-15T22:29:00.497Z,18.90
2022-10-15T22:31:29.149Z,19.43
2022-10-15T22:33:58.537Z,19.97
2022-10-15T22:36:27.721Z,18.93
2022-10-15T22:38:57.940Z,19.17
2022-10-15T22:41:24.911Z,19.87
2022-10-15T22:43:51.923Z,17.77
2022-10-15T22:46:19.014Z,17.43
2022-10-15T22:48:46.292Z,17.10
2022-10-15T22:51:16.812Z,17.03
2022-10-15T22:53:43.866Z,16.13
2022-10-15T22:56:19.003Z,15.83
2022-10-15T22:58:46.521Z,16.60
2022-10-15T23:01:19.141Z,16.07
2022-10-15T23:03:49.959Z,16.13
2022-10-15T23:06:18.512Z,16.47
2022-10-15T23:08:47.825Z,17.27
2022-10-15T23:11:19.212Z,16.00
2022-10-15T23:13:47.911Z,16.57
2022-10-15T23:16:17.652Z,14.53
2022-10-15T23:18:47.252Z,14.23
2022-10-15T23:21:18.878Z,14.53
2022-10-15T23:23:47.098Z,12.80
2022-10-15T23:26:17.245Z,14.63
2022-10-15T23:28:49.850Z,13.57
2022-10-15T23:31:25.553Z,14.60
2022-10-15T23:33:55.364Z,13.80
2022-10-15T23:36:23.675Z,14.57
2022-10-15T23:38:53.242Z,15.43
2022-10-15T23:41:20.409Z,14.00
2022-10-15T23:43:47.760Z,14.33
2022-10-15T23:46:15.324Z,13.73
2022-10-15T23:48:43.410Z,13.97
2022-10-15T23:51:13.786Z,14.60
2022-10-15T23:53:41.609Z,12.07
2022-10-15T23:56:08.876Z,13.63
2022-10-15T23:58:36.260Z,12.73
